Friday, October 24, 2014
12:49 UTC
  |  Log In   |  Register Free
Airport Search:

Madison Airport
(KI39)

Madison Airport Diagram
No Airport Diagram Available

FAA data valid effective September 18, 2014 - November 13, 2014 (unless otherwise noted).

 
 
 
 
 
 
 
 
 
 
 
 
 
 

Current Aviation Weather for Madison Airport (KI39)

The most recent METAR observation for KI39 was updated at: 1209
METAR Summary (Translated METAR)
KI39
241155Z AUTO 00000KT 7SM CLR 05/04 A3013 RMK AO2
KDVK
241155Z AUTO 00000KT 7SM CLR 05/05 A3014 RMK AO2
(21 nm SW from KI39)
KLEX
241154Z 12003KT 5SM BR CLR 04/03 A3013 RMK AO2 SLP206 T00440028 10078 20044 50005
(27.6 nm NW from KI39)
TAF Summary (Translated TAF)
KLEX
(28.6 nm NE from KDVK)
241136Z 2412/2512 VRB03KT P6SM FEW250 TEMPO 2412/2413 5SM BR FM241900 VRB03KT P6SM BKN050
  Airport Weather Conditions for KI39

 Current Weather at I39
41° F
Fair
North winds at 0.0 mph
I39 NOAA Radar

Pressure: 30.13 in
Humidity: 93%
Wind: Calm
Dew Point: 39.2°F
Visibility: 7.00 mi


Airport Weather Forecast for KI39

Translated METAR and TAF for KDVK
Translated METAR for KDVK (1244 UTC 24 October 2014)
found at http://aviationweather.gov/adds/metars/
 
METAR text: KDVK 241235Z AUTO 00000KT 7SM CLR 05/05 A3014 RMK AO2
Conditions at: KDVK (DANVILLE , KY, US) observed 1235 UTC 24 October 2014
Temperature: 5.0°C (41°F)
Dewpoint: 5.0°C (41°F) [RH = 100%]
Pressure (altimeter): 30.14 inches Hg (1020.7 mb)
Winds: calm
Visibility: 7 miles (11 km)
Ceiling: at least 12,000 feet AGL
Clouds: sky clear below 12,000 feet AGL
Weather: automated observation with no human augmentation;
there may or may not be significant weather present at this time
Translated TAF for KDVK

There is no translated TAF available for this airport

Find All Airport Services Find A Hotel Find A Rental Car Find A Golf Course Find A Restaurant $100 Hamburger



FBO's on the Field
FBO Company Facility Photos Services Transportation Aviation Fuel Prices: Prices include tax
Catering Weather Repair Courtesy Rental Type 100LL JetA JetA+ MOGAS 8087
 
Eastern Kentucky University

This FBO has not yet been rated
FS:Shell
Last Updated: Oct-10
Login to update fuel prices
SS:
Contact Eastern Kentucky UniversityMore FBO Information
 
Add another FBO Facility Photos Catering Weather Repair Courtesy Rental Type 100LL JetA JetA+ MOGAS 8087
Services Transportation Aviation Fuel Prices: Prices include tax


model-print
model-print
model-print
model-print